KTOA/TOA METAR and TAF weather

Enter ICAO airport designator
Station Type Date Time Source
KTOA METAR 2019/02/20 23:48 UTC NOAA

KTOA 202348Z 24012KT 10SM SCT030 BKN055 13/06 A2982


Station Type Date Time Source
KTOA Decoded METAR 2019/02/20 23:48 UTC NOAA

Torrance, Zamperini Field Airport, CA, United States (KTOA) 33-48N 118-20W
Feb 20, 2019 - 06:48 PM EST / 2019.02.20 2348 UTC
Wind: from the WSW (240 degrees) at 14 MPH (12 KT):0
Visibility: 10 mile(s):0
Sky conditions: mostly cloudy
Temperature: 55 F (13 C)
Dew Point: 42 F (6 C)
Relative Humidity: 62%
Pressure (altimeter): 29.82 in. Hg (1009 hPa)
ob: KTOA 202348Z 24012KT 10SM SCT030 BKN055 13/06 A2982
cycle: 0

Station Type Date Time Source
KTOA TAF UTC NOAA

Error!


Example: see airport list